sensor_id;sensor_type;location;lat;lon;timestamp;P1;durP1;ratioP1;P2;durP2;ratioP2
64052;SDS011;50299;49.524;8.536;2024-02-26T00:02:02;1.50;;;1.50;;
64052;SDS011;50299;49.524;8.536;2024-02-26T00:04:33;1.77;;;1.58;;
64052;SDS011;50299;49.524;8.536;2024-02-26T00:06:59;1.98;;;1.88;;
64052;SDS011;50299;49.524;8.536;2024-02-26T00:09:26;1.77;;;1.67;;
64052;SDS011;50299;49.524;8.536;2024-02-26T00:11:52;1.90;;;1.80;;
64052;SDS011;50299;49.524;8.536;2024-02-26T00:14:19;1.77;;;1.73;;
64052;SDS011;50299;49.524;8.536;2024-02-26T00:16:48;0.90;;;0.90;;
64052;SDS011;50299;49.524;8.536;2024-02-26T00:19:14;1.77;;;1.77;;
64052;SDS011;50299;49.524;8.536;2024-02-26T00:21:41;1.95;;;1.67;;
64052;SDS011;50299;49.524;8.536;2024-02-26T00:24:08;1.27;;;1.25;;
64052;SDS011;50299;49.524;8.536;2024-02-26T00:26:35;1.63;;;1.55;;
64052;SDS011;50299;49.524;8.536;2024-02-26T00:29:01;1.52;;;1.50;;
64052;SDS011;50299;49.524;8.536;2024-02-26T00:31:27;1.50;;;1.40;;
64052;SDS011;50299;49.524;8.536;2024-02-26T00:33:54;1.40;;;1.40;;
64052;SDS011;50299;49.524;8.536;2024-02-26T00:36:23;1.73;;;1.33;;
64052;SDS011;50299;49.524;8.536;2024-02-26T00:38:50;2.50;;;2.30;;
64052;SDS011;50299;49.524;8.536;2024-02-26T00:41:19;1.92;;;1.83;;
64052;SDS011;50299;49.524;8.536;2024-02-26T00:43:46;0.80;;;0.80;;
64052;SDS011;50299;49.524;8.536;2024-02-26T00:46:13;0.98;;;0.98;;
64052;SDS011;50299;49.524;8.536;2024-02-26T00:48:39;1.90;;;1.80;;
64052;SDS011;50299;49.524;8.536;2024-02-26T00:51:06;1.98;;;1.88;;
64052;SDS011;50299;49.524;8.536;2024-02-26T00:53:34;1.98;;;1.88;;
64052;SDS011;50299;49.524;8.536;2024-02-26T00:56:00;1.92;;;1.92;;
64052;SDS011;50299;49.524;8.536;2024-02-26T00:58:27;1.50;;;1.40;;
64052;SDS011;50299;49.524;8.536;2024-02-26T01:00:54;2.00;;;1.90;;
64052;SDS011;50299;49.524;8.536;2024-02-26T01:03:21;1.70;;;1.70;;
64052;SDS011;50299;49.524;8.536;2024-02-26T01:05:47;1.35;;;1.05;;
64052;SDS011;50299;49.524;8.536;2024-02-26T01:08:14;1.65;;;1.65;;
64052;SDS011;50299;49.524;8.536;2024-02-26T01:10:40;1.42;;;1.42;;
64052;SDS011;50299;49.524;8.536;2024-02-26T01:13:07;1.75;;;1.65;;
64052;SDS011;50299;49.524;8.536;2024-02-26T01:15:34;1.73;;;1.67;;
64052;SDS011;50299;49.524;8.536;2024-02-26T01:18:00;0.80;;;0.80;;
64052;SDS011;50299;49.524;8.536;2024-02-26T01:20:27;2.28;;;1.48;;
64052;SDS011;50299;49.524;8.536;2024-02-26T01:22:53;1.52;;;1.52;;
64052;SDS011;50299;49.524;8.536;2024-02-26T01:25:20;2.08;;;1.98;;
64052;SDS011;50299;49.524;8.536;2024-02-26T01:27:46;1.75;;;1.75;;
64052;SDS011;50299;49.524;8.536;2024-02-26T01:30:12;1.83;;;1.27;;
64052;SDS011;50299;49.524;8.536;2024-02-26T01:32:42;2.20;;;2.10;;
64052;SDS011;50299;49.524;8.536;2024-02-26T01:35:09;1.55;;;1.55;;
64052;SDS011;50299;49.524;8.536;2024-02-26T01:37:40;1.58;;;1.48;;
64052;SDS011;50299;49.524;8.536;2024-02-26T01:40:07;3.15;;;1.70;;
64052;SDS011;50299;49.524;8.536;2024-02-26T01:42:37;2.00;;;1.90;;
64052;SDS011;50299;49.524;8.536;2024-02-26T01:45:05;2.40;;;2.20;;
64052;SDS011;50299;49.524;8.536;2024-02-26T01:47:33;1.95;;;1.85;;
64052;SDS011;50299;49.524;8.536;2024-02-26T01:50:00;1.98;;;1.88;;
64052;SDS011;50299;49.524;8.536;2024-02-26T01:52:26;3.10;;;1.70;;
64052;SDS011;50299;49.524;8.536;2024-02-26T01:54:56;2.83;;;1.15;;
64052;SDS011;50299;49.524;8.536;2024-02-26T01:57:23;2.22;;;2.03;;
64052;SDS011;50299;49.524;8.536;2024-02-26T01:59:49;1.25;;;0.95;;
64052;SDS011;50299;49.524;8.536;2024-02-26T02:02:16;1.23;;;1.13;;
64052;SDS011;50299;49.524;8.536;2024-02-26T02:04:42;2.35;;;2.25;;
64052;SDS011;50299;49.524;8.536;2024-02-26T02:07:09;2.00;;;1.90;;
64052;SDS011;50299;49.524;8.536;2024-02-26T02:09:36;1.83;;;1.73;;
64052;SDS011;50299;49.524;8.536;2024-02-26T02:12:02;1.75;;;1.65;;
64052;SDS011;50299;49.524;8.536;2024-02-26T02:16:58;2.40;;;1.77;;
64052;SDS011;50299;49.524;8.536;2024-02-26T02:19:24;2.88;;;2.67;;
64052;SDS011;50299;49.524;8.536;2024-02-26T02:24:22;2.55;;;2.45;;
64052;SDS011;50299;49.524;8.536;2024-02-26T02:26:48;2.22;;;2.13;;
64052;SDS011;50299;49.524;8.536;2024-02-26T02:29:14;2.20;;;2.10;;
64052;SDS011;50299;49.524;8.536;2024-02-26T02:31:41;2.17;;;2.08;;
64052;SDS011;50299;49.524;8.536;2024-02-26T02:34:09;2.00;;;1.80;;
64052;SDS011;50299;49.524;8.536;2024-02-26T02:36:47;1.83;;;1.73;;
64052;SDS011;50299;49.524;8.536;2024-02-26T02:39:15;2.05;;;1.75;;
64052;SDS011;50299;49.524;8.536;2024-02-26T02:41:42;2.17;;;2.08;;
64052;SDS011;50299;49.524;8.536;2024-02-26T02:44:08;2.03;;;1.92;;
64052;SDS011;50299;49.524;8.536;2024-02-26T02:46:35;1.77;;;1.67;;
64052;SDS011;50299;49.524;8.536;2024-02-26T02:49:01;2.40;;;2.25;;
64052;SDS011;50299;49.524;8.536;2024-02-26T02:51:30;2.67;;;2.47;;
64052;SDS011;50299;49.524;8.536;2024-02-26T02:53:57;2.28;;;2.17;;
64052;SDS011;50299;49.524;8.536;2024-02-26T02:56:23;1.80;;;1.70;;
64052;SDS011;50299;49.524;8.536;2024-02-26T02:58:49;1.95;;;1.85;;
64052;SDS011;50299;49.524;8.536;2024-02-26T03:01:16;2.00;;;1.75;;
64052;SDS011;50299;49.524;8.536;2024-02-26T03:03:42;1.08;;;0.82;;
64052;SDS011;50299;49.524;8.536;2024-02-26T03:06:09;1.67;;;1.58;;
64052;SDS011;50299;49.524;8.536;2024-02-26T03:08:35;1.48;;;1.48;;
64052;SDS011;50299;49.524;8.536;2024-02-26T03:11:06;1.05;;;1.02;;
64052;SDS011;50299;49.524;8.536;2024-02-26T03:13:33;1.83;;;1.73;;
64052;SDS011;50299;49.524;8.536;2024-02-26T03:16:04;2.17;;;2.08;;
64052;SDS011;50299;49.524;8.536;2024-02-26T03:18:31;1.23;;;1.17;;
64052;SDS011;50299;49.524;8.536;2024-02-26T03:21:00;1.58;;;1.48;;
64052;SDS011;50299;49.524;8.536;2024-02-26T03:23:27;1.17;;;1.15;;
64052;SDS011;50299;49.524;8.536;2024-02-26T03:25:54;2.67;;;2.47;;
64052;SDS011;50299;49.524;8.536;2024-02-26T03:28:22;1.83;;;1.73;;
64052;SDS011;50299;49.524;8.536;2024-02-26T03:30:48;1.52;;;1.52;;
64052;SDS011;50299;49.524;8.536;2024-02-26T03:33:14;1.70;;;1.60;;
64052;SDS011;50299;49.524;8.536;2024-02-26T03:35:41;1.40;;;1.40;;
64052;SDS011;50299;49.524;8.536;2024-02-26T03:38:07;2.00;;;1.90;;
64052;SDS011;50299;49.524;8.536;2024-02-26T03:40:34;2.10;;;1.92;;
64052;SDS011;50299;49.524;8.536;2024-02-26T03:43:00;1.33;;;1.20;;
64052;SDS011;50299;49.524;8.536;2024-02-26T03:45:27;1.63;;;1.30;;
64052;SDS011;50299;49.524;8.536;2024-02-26T03:47:54;2.10;;;1.88;;
64052;SDS011;50299;49.524;8.536;2024-02-26T03:50:20;2.63;;;2.47;;
64052;SDS011;50299;49.524;8.536;2024-02-26T03:52:47;2.33;;;2.22;;
64052;SDS011;50299;49.524;8.536;2024-02-26T03:55:13;2.20;;;2.10;;
64052;SDS011;50299;49.524;8.536;2024-02-26T03:57:40;2.92;;;2.40;;
64052;SDS011;50299;49.524;8.536;2024-02-26T04:00:10;2.20;;;2.10;;
64052;SDS011;50299;49.524;8.536;2024-02-26T04:02:37;1.88;;;1.73;;
64052;SDS011;50299;49.524;8.536;2024-02-26T04:05:03;2.15;;;2.05;;
64052;SDS011;50299;49.524;8.536;2024-02-26T04:07:30;2.20;;;2.03;;
64052;SDS011;50299;49.524;8.536;2024-02-26T04:09:56;2.10;;;2.00;;
64052;SDS011;50299;49.524;8.536;2024-02-26T04:12:23;3.03;;;2.22;;
64052;SDS011;50299;49.524;8.536;2024-02-26T04:14:49;2.55;;;1.80;;
64052;SDS011;50299;49.524;8.536;2024-02-26T04:17:18;3.25;;;1.77;;
64052;SDS011;50299;49.524;8.536;2024-02-26T04:19:45;1.80;;;1.27;;
64052;SDS011;50299;49.524;8.536;2024-02-26T04:22:11;3.25;;;1.30;;
64052;SDS011;50299;49.524;8.536;2024-02-26T04:24:38;4.07;;;1.77;;
64052;SDS011;50299;49.524;8.536;2024-02-26T04:27:04;2.13;;;2.03;;
64052;SDS011;50299;49.524;8.536;2024-02-26T04:29:31;2.70;;;1.98;;
64052;SDS011;50299;49.524;8.536;2024-02-26T04:31:57;1.10;;;1.10;;
64052;SDS011;50299;49.524;8.536;2024-02-26T04:34:24;1.25;;;1.13;;
64052;SDS011;50299;49.524;8.536;2024-02-26T04:36:50;1.73;;;1.17;;
64052;SDS011;50299;49.524;8.536;2024-02-26T04:39:17;2.08;;;1.98;;
64052;SDS011;50299;49.524;8.536;2024-02-26T04:41:43;1.65;;;1.65;;
64052;SDS011;50299;49.524;8.536;2024-02-26T04:44:10;1.83;;;1.77;;
64052;SDS011;50299;49.524;8.536;2024-02-26T04:46:36;1.30;;;1.30;;
64052;SDS011;50299;49.524;8.536;2024-02-26T04:49:09;1.90;;;1.83;;
64052;SDS011;50299;49.524;8.536;2024-02-26T04:51:36;1.63;;;1.35;;
64052;SDS011;50299;49.524;8.536;2024-02-26T04:54:06;2.70;;;1.67;;
64052;SDS011;50299;49.524;8.536;2024-02-26T04:56:32;1.63;;;1.52;;
64052;SDS011;50299;49.524;8.536;2024-02-26T04:58:58;1.05;;;1.05;;
64052;SDS011;50299;49.524;8.536;2024-02-26T05:01:25;3.17;;;1.58;;
64052;SDS011;50299;49.524;8.536;2024-02-26T05:03:52;1.67;;;1.63;;
64052;SDS011;50299;49.524;8.536;2024-02-26T05:06:18;1.73;;;1.70;;
64052;SDS011;50299;49.524;8.536;2024-02-26T05:08:45;1.67;;;1.63;;
64052;SDS011;50299;49.524;8.536;2024-02-26T05:11:12;1.27;;;1.23;;
64052;SDS011;50299;49.524;8.536;2024-02-26T05:13:38;2.75;;;1.95;;
64052;SDS011;50299;49.524;8.536;2024-02-26T05:16:05;1.30;;;1.30;;
64052;SDS011;50299;49.524;8.536;2024-02-26T05:18:32;1.65;;;1.63;;
64052;SDS011;50299;49.524;8.536;2024-02-26T05:20:58;1.20;;;1.20;;
64052;SDS011;50299;49.524;8.536;2024-02-26T05:23:25;1.77;;;1.63;;
64052;SDS011;50299;49.524;8.536;2024-02-26T05:25:52;1.33;;;1.23;;
64052;SDS011;50299;49.524;8.536;2024-02-26T05:28:19;1.40;;;1.40;;
64052;SDS011;50299;49.524;8.536;2024-02-26T05:30:47;1.13;;;1.13;;
64052;SDS011;50299;49.524;8.536;2024-02-26T05:33:13;1.52;;;1.48;;
64052;SDS011;50299;49.524;8.536;2024-02-26T05:35:44;1.00;;;1.00;;
64052;SDS011;50299;49.524;8.536;2024-02-26T05:38:11;1.27;;;1.27;;
64052;SDS011;50299;49.524;8.536;2024-02-26T05:40:37;2.42;;;0.93;;
64052;SDS011;50299;49.524;8.536;2024-02-26T05:43:04;1.75;;;1.65;;
64052;SDS011;50299;49.524;8.536;2024-02-26T05:45:31;1.48;;;1.48;;
64052;SDS011;50299;49.524;8.536;2024-02-26T05:47:57;2.70;;;1.73;;
64052;SDS011;50299;49.524;8.536;2024-02-26T05:50:24;1.52;;;1.52;;
64052;SDS011;50299;49.524;8.536;2024-02-26T05:52:51;1.77;;;1.77;;
64052;SDS011;50299;49.524;8.536;2024-02-26T05:55:18;1.42;;;0.70;;
64052;SDS011;50299;49.524;8.536;2024-02-26T05:57:45;1.42;;;1.33;;
64052;SDS011;50299;49.524;8.536;2024-02-26T06:00:11;0.75;;;0.75;;
64052;SDS011;50299;49.524;8.536;2024-02-26T06:02:41;1.27;;;1.27;;
64052;SDS011;50299;49.524;8.536;2024-02-26T06:05:07;1.05;;;1.05;;
64052;SDS011;50299;49.524;8.536;2024-02-26T06:07:35;2.55;;;1.30;;
64052;SDS011;50299;49.524;8.536;2024-02-26T06:10:02;1.45;;;1.45;;
64052;SDS011;50299;49.524;8.536;2024-02-26T06:12:30;1.13;;;1.13;;
64052;SDS011;50299;49.524;8.536;2024-02-26T06:14:57;1.20;;;1.20;;
64052;SDS011;50299;49.524;8.536;2024-02-26T06:17:28;0.55;;;0.55;;
64052;SDS011;50299;49.524;8.536;2024-02-26T06:19:54;1.10;;;1.10;;
64052;SDS011;50299;49.524;8.536;2024-02-26T06:22:21;1.55;;;1.50;;
64052;SDS011;50299;49.524;8.536;2024-02-26T06:24:47;2.95;;;2.75;;
64052;SDS011;50299;49.524;8.536;2024-02-26T06:27:14;1.90;;;1.80;;
64052;SDS011;50299;49.524;8.536;2024-02-26T06:29:40;1.50;;;1.40;;
64052;SDS011;50299;49.524;8.536;2024-02-26T06:32:07;1.13;;;1.10;;
64052;SDS011;50299;49.524;8.536;2024-02-26T06:34:33;1.55;;;1.55;;
64052;SDS011;50299;49.524;8.536;2024-02-26T06:36:59;1.13;;;1.13;;
64052;SDS011;50299;49.524;8.536;2024-02-26T06:39:26;1.38;;;1.33;;
64052;SDS011;50299;49.524;8.536;2024-02-26T06:41:52;2.85;;;1.20;;
64052;SDS011;50299;49.524;8.536;2024-02-26T06:44:27;1.50;;;1.40;;
64052;SDS011;50299;49.524;8.536;2024-02-26T06:46:58;1.40;;;1.30;;
64052;SDS011;50299;49.524;8.536;2024-02-26T06:49:26;1.50;;;1.50;;
64052;SDS011;50299;49.524;8.536;2024-02-26T06:51:53;1.65;;;1.58;;
64052;SDS011;50299;49.524;8.536;2024-02-26T06:54:19;0.93;;;0.93;;
64052;SDS011;50299;49.524;8.536;2024-02-26T06:56:46;1.45;;;1.35;;
64052;SDS011;50299;49.524;8.536;2024-02-26T06:59:13;1.80;;;1.65;;
64052;SDS011;50299;49.524;8.536;2024-02-26T07:01:40;1.50;;;1.42;;
64052;SDS011;50299;49.524;8.536;2024-02-26T07:04:08;1.83;;;1.77;;
64052;SDS011;50299;49.524;8.536;2024-02-26T07:06:35;1.48;;;1.38;;
64052;SDS011;50299;49.524;8.536;2024-02-26T07:09:01;2.05;;;1.95;;
64052;SDS011;50299;49.524;8.536;2024-02-26T07:11:36;2.15;;;1.65;;
64052;SDS011;50299;49.524;8.536;2024-02-26T07:14:02;3.15;;;1.50;;
64052;SDS011;50299;49.524;8.536;2024-02-26T07:16:30;1.33;;;1.33;;
64052;SDS011;50299;49.524;8.536;2024-02-26T07:18:56;2.72;;;1.42;;
64052;SDS011;50299;49.524;8.536;2024-02-26T07:21:23;2.03;;;1.92;;
64052;SDS011;50299;49.524;8.536;2024-02-26T07:23:50;4.70;;;1.73;;
64052;SDS011;50299;49.524;8.536;2024-02-26T07:26:17;2.58;;;1.75;;
64052;SDS011;50299;49.524;8.536;2024-02-26T07:28:44;5.38;;;2.78;;
64052;SDS011;50299;49.524;8.536;2024-02-26T07:31:11;2.30;;;2.13;;
64052;SDS011;50299;49.524;8.536;2024-02-26T07:33:41;3.95;;;1.05;;
64052;SDS011;50299;49.524;8.536;2024-02-26T07:36:08;2.33;;;2.22;;
64052;SDS011;50299;49.524;8.536;2024-02-26T07:38:34;2.40;;;2.20;;
64052;SDS011;50299;49.524;8.536;2024-02-26T07:41:09;2.03;;;1.92;;
64052;SDS011;50299;49.524;8.536;2024-02-26T07:43:37;1.70;;;1.60;;
64052;SDS011;50299;49.524;8.536;2024-02-26T07:46:06;1.52;;;1.42;;
64052;SDS011;50299;49.524;8.536;2024-02-26T07:48:33;1.77;;;1.67;;
64052;SDS011;50299;49.524;8.536;2024-02-26T07:51:00;2.53;;;2.42;;
64052;SDS011;50299;49.524;8.536;2024-02-26T07:53:26;1.63;;;1.63;;
64052;SDS011;50299;49.524;8.536;2024-02-26T07:55:53;1.65;;;1.55;;
64052;SDS011;50299;49.524;8.536;2024-02-26T07:58:19;2.05;;;1.95;;
64052;SDS011;50299;49.524;8.536;2024-02-26T08:00:46;1.25;;;1.08;;
64052;SDS011;50299;49.524;8.536;2024-02-26T08:03:13;1.77;;;1.67;;
64052;SDS011;50299;49.524;8.536;2024-02-26T08:05:42;1.58;;;1.58;;
64052;SDS011;50299;49.524;8.536;2024-02-26T08:08:09;2.00;;;1.90;;
64052;SDS011;50299;49.524;8.536;2024-02-26T08:10:45;2.80;;;2.17;;
64052;SDS011;50299;49.524;8.536;2024-02-26T08:13:11;1.90;;;1.77;;
64052;SDS011;50299;49.524;8.536;2024-02-26T08:15:38;2.42;;;2.30;;
64052;SDS011;50299;49.524;8.536;2024-02-26T08:18:04;2.10;;;2.00;;
64052;SDS011;50299;49.524;8.536;2024-02-26T08:20:32;1.88;;;1.77;;
64052;SDS011;50299;49.524;8.536;2024-02-26T08:22:58;2.20;;;2.05;;
64052;SDS011;50299;49.524;8.536;2024-02-26T08:25:27;1.83;;;1.73;;
64052;SDS011;50299;49.524;8.536;2024-02-26T08:28:01;1.92;;;1.83;;
64052;SDS011;50299;49.524;8.536;2024-02-26T08:30:27;1.75;;;1.65;;
64052;SDS011;50299;49.524;8.536;2024-02-26T08:32:54;3.33;;;1.63;;
64052;SDS011;50299;49.524;8.536;2024-02-26T08:35:21;2.03;;;1.77;;
64052;SDS011;50299;49.524;8.536;2024-02-26T08:37:47;1.98;;;1.70;;
64052;SDS011;50299;49.524;8.536;2024-02-26T08:40:14;1.70;;;1.60;;
64052;SDS011;50299;49.524;8.536;2024-02-26T08:42:41;3.17;;;2.22;;
64052;SDS011;50299;49.524;8.536;2024-02-26T08:45:08;1.65;;;1.55;;
64052;SDS011;50299;49.524;8.536;2024-02-26T08:47:35;1.80;;;1.70;;
64052;SDS011;50299;49.524;8.536;2024-02-26T08:50:04;0.80;;;0.80;;
64052;SDS011;50299;49.524;8.536;2024-02-26T08:52:31;1.70;;;1.70;;
64052;SDS011;50299;49.524;8.536;2024-02-26T08:54:58;1.65;;;1.58;;
64052;SDS011;50299;49.524;8.536;2024-02-26T08:57:25;0.70;;;0.70;;
64052;SDS011;50299;49.524;8.536;2024-02-26T08:59:53;1.65;;;1.60;;
64052;SDS011;50299;49.524;8.536;2024-02-26T09:02:20;1.70;;;1.60;;
64052;SDS011;50299;49.524;8.536;2024-02-26T09:04:47;1.30;;;1.13;;
64052;SDS011;50299;49.524;8.536;2024-02-26T09:07:13;1.30;;;1.20;;
64052;SDS011;50299;49.524;8.536;2024-02-26T09:09:40;1.75;;;1.65;;
64052;SDS011;50299;49.524;8.536;2024-02-26T09:12:06;1.35;;;1.35;;
64052;SDS011;50299;49.524;8.536;2024-02-26T09:14:33;1.70;;;1.60;;
64052;SDS011;50299;49.524;8.536;2024-02-26T09:17:00;1.02;;;1.02;;
64052;SDS011;50299;49.524;8.536;2024-02-26T09:19:26;1.20;;;1.20;;
64052;SDS011;50299;49.524;8.536;2024-02-26T09:21:56;1.55;;;1.50;;
64052;SDS011;50299;49.524;8.536;2024-02-26T09:24:24;1.75;;;1.65;;
64052;SDS011;50299;49.524;8.536;2024-02-26T09:26:51;1.98;;;1.27;;
64052;SDS011;50299;49.524;8.536;2024-02-26T09:29:18;9.90;;;1.27;;
64052;SDS011;50299;49.524;8.536;2024-02-26T09:31:44;2.08;;;1.98;;
64052;SDS011;50299;49.524;8.536;2024-02-26T09:34:14;3.33;;;1.15;;
64052;SDS011;50299;49.524;8.536;2024-02-26T09:36:41;6.78;;;2.28;;
64052;SDS011;50299;49.524;8.536;2024-02-26T09:39:07;2.92;;;2.42;;
64052;SDS011;50299;49.524;8.536;2024-02-26T09:41:38;1.92;;;1.83;;
64052;SDS011;50299;49.524;8.536;2024-02-26T09:44:04;1.60;;;1.38;;
64052;SDS011;50299;49.524;8.536;2024-02-26T09:46:31;3.00;;;1.40;;
64052;SDS011;50299;49.524;8.536;2024-02-26T09:48:58;2.65;;;1.42;;
64052;SDS011;50299;49.524;8.536;2024-02-26T09:51:25;1.00;;;1.00;;
64052;SDS011;50299;49.524;8.536;2024-02-26T09:53:52;1.70;;;1.48;;
64052;SDS011;50299;49.524;8.536;2024-02-26T09:56:19;1.65;;;1.65;;
64052;SDS011;50299;49.524;8.536;2024-02-26T09:58:47;1.52;;;1.42;;
64052;SDS011;50299;49.524;8.536;2024-02-26T10:01:20;1.55;;;1.55;;
64052;SDS011;50299;49.524;8.536;2024-02-26T10:03:48;1.60;;;1.50;;
64052;SDS011;50299;49.524;8.536;2024-02-26T10:06:25;1.17;;;0.85;;
64052;SDS011;50299;49.524;8.536;2024-02-26T10:08:54;1.65;;;0.63;;
64052;SDS011;50299;49.524;8.536;2024-02-26T10:11:22;1.38;;;1.27;;
64052;SDS011;50299;49.524;8.536;2024-02-26T10:13:50;1.35;;;1.35;;
64052;SDS011;50299;49.524;8.536;2024-02-26T10:16:18;1.10;;;1.10;;
64052;SDS011;50299;49.524;8.536;2024-02-26T10:18:52;0.90;;;0.80;;
64052;SDS011;50299;49.524;8.536;2024-02-26T10:21:25;1.60;;;1.50;;
64052;SDS011;50299;49.524;8.536;2024-02-26T10:23:52;1.48;;;1.48;;
64052;SDS011;50299;49.524;8.536;2024-02-26T10:26:19;1.23;;;1.23;;
64052;SDS011;50299;49.524;8.536;2024-02-26T10:28:46;1.65;;;1.35;;
64052;SDS011;50299;49.524;8.536;2024-02-26T10:31:17;0.50;;;0.50;;
64052;SDS011;50299;49.524;8.536;2024-02-26T10:33:44;6.47;;;1.15;;
64052;SDS011;50299;49.524;8.536;2024-02-26T10:36:11;2.10;;;1.00;;
64052;SDS011;50299;49.524;8.536;2024-02-26T10:38:38;0.60;;;0.60;;
64052;SDS011;50299;49.524;8.536;2024-02-26T10:41:07;1.05;;;1.00;;
64052;SDS011;50299;49.524;8.536;2024-02-26T10:43:41;1.65;;;0.50;;
64052;SDS011;50299;49.524;8.536;2024-02-26T10:46:08;0.98;;;0.98;;
64052;SDS011;50299;49.524;8.536;2024-02-26T10:48:35;4.57;;;0.80;;
64052;SDS011;50299;49.524;8.536;2024-02-26T10:51:03;2.15;;;0.57;;
64052;SDS011;50299;49.524;8.536;2024-02-26T10:53:31;0.50;;;0.50;;
64052;SDS011;50299;49.524;8.536;2024-02-26T10:56:03;1.20;;;1.20;;
64052;SDS011;50299;49.524;8.536;2024-02-26T10:58:31;1.40;;;0.70;;
64052;SDS011;50299;49.524;8.536;2024-02-26T11:00:58;0.68;;;0.60;;
64052;SDS011;50299;49.524;8.536;2024-02-26T11:03:26;1.10;;;1.10;;
64052;SDS011;50299;49.524;8.536;2024-02-26T11:05:53;0.80;;;0.80;;
64052;SDS011;50299;49.524;8.536;2024-02-26T11:08:20;0.90;;;0.90;;
64052;SDS011;50299;49.524;8.536;2024-02-26T11:10:50;0.60;;;0.60;;
64052;SDS011;50299;49.524;8.536;2024-02-26T11:13:21;1.40;;;0.70;;
64052;SDS011;50299;49.524;8.536;2024-02-26T11:15:48;3.47;;;1.20;;
64052;SDS011;50299;49.524;8.536;2024-02-26T11:18:15;0.47;;;0.47;;
64052;SDS011;50299;49.524;8.536;2024-02-26T11:20:43;0.65;;;0.60;;
64052;SDS011;50299;49.524;8.536;2024-02-26T11:23:11;0.60;;;0.57;;
64052;SDS011;50299;49.524;8.536;2024-02-26T11:25:37;0.75;;;0.63;;
64052;SDS011;50299;49.524;8.536;2024-02-26T11:28:06;0.65;;;0.52;;
64052;SDS011;50299;49.524;8.536;2024-02-26T11:30:41;0.55;;;0.55;;
64052;SDS011;50299;49.524;8.536;2024-02-26T11:33:12;0.40;;;0.40;;
64052;SDS011;50299;49.524;8.536;2024-02-26T11:35:41;0.63;;;0.63;;
64052;SDS011;50299;49.524;8.536;2024-02-26T11:38:08;0.50;;;0.50;;
64052;SDS011;50299;49.524;8.536;2024-02-26T11:40:44;0.38;;;0.38;;
64052;SDS011;50299;49.524;8.536;2024-02-26T11:43:11;1.23;;;1.02;;
64052;SDS011;50299;49.524;8.536;2024-02-26T11:48:24;0.70;;;0.70;;
64052;SDS011;50299;49.524;8.536;2024-02-26T11:50:52;0.40;;;0.40;;
64052;SDS011;50299;49.524;8.536;2024-02-26T11:53:24;0.73;;;0.50;;
64052;SDS011;50299;49.524;8.536;2024-02-26T11:58:45;1.10;;;0.40;;
64052;SDS011;50299;49.524;8.536;2024-02-26T12:07:02;0.73;;;0.57;;
64052;SDS011;50299;49.524;8.536;2024-02-26T12:09:32;0.77;;;0.77;;
64052;SDS011;50299;49.524;8.536;2024-02-26T12:12:06;0.40;;;0.40;;
64052;SDS011;50299;49.524;8.536;2024-02-26T12:14:38;1.02;;;1.02;;
64052;SDS011;50299;49.524;8.536;2024-02-26T12:17:18;0.98;;;0.98;;
64052;SDS011;50299;49.524;8.536;2024-02-26T12:19:46;1.13;;;1.13;;
64052;SDS011;50299;49.524;8.536;2024-02-26T12:22:13;1.10;;;0.93;;
64052;SDS011;50299;49.524;8.536;2024-02-26T12:24:41;0.40;;;0.40;;
64052;SDS011;50299;49.524;8.536;2024-02-26T12:27:10;0.47;;;0.40;;
64052;SDS011;50299;49.524;8.536;2024-02-26T12:29:36;1.30;;;1.17;;
64052;SDS011;50299;49.524;8.536;2024-02-26T12:32:04;0.93;;;0.57;;
64052;SDS011;50299;49.524;8.536;2024-02-26T12:34:33;0.63;;;0.63;;
64052;SDS011;50299;49.524;8.536;2024-02-26T12:37:00;0.50;;;0.50;;
64052;SDS011;50299;49.524;8.536;2024-02-26T12:39:27;0.40;;;0.40;;
64052;SDS011;50299;49.524;8.536;2024-02-26T12:41:54;0.40;;;0.40;;
64052;SDS011;50299;49.524;8.536;2024-02-26T12:44:25;0.45;;;0.45;;
64052;SDS011;50299;49.524;8.536;2024-02-26T12:46:59;0.57;;;0.57;;
64052;SDS011;50299;49.524;8.536;2024-02-26T12:49:30;0.30;;;0.30;;
64052;SDS011;50299;49.524;8.536;2024-02-26T12:51:58;5.03;;;0.73;;
64052;SDS011;50299;49.524;8.536;2024-02-26T12:54:28;0.43;;;0.40;;
64052;SDS011;50299;49.524;8.536;2024-02-26T12:57:00;0.40;;;0.40;;
64052;SDS011;50299;49.524;8.536;2024-02-26T12:59:28;0.30;;;0.30;;
64052;SDS011;50299;49.524;8.536;2024-02-26T13:01:56;0.30;;;0.25;;
64052;SDS011;50299;49.524;8.536;2024-02-26T13:04:23;0.57;;;0.40;;
64052;SDS011;50299;49.524;8.536;2024-02-26T13:06:50;0.68;;;0.68;;
64052;SDS011;50299;49.524;8.536;2024-02-26T13:09:17;0.63;;;0.55;;
64052;SDS011;50299;49.524;8.536;2024-02-26T13:11:45;0.32;;;0.32;;
64052;SDS011;50299;49.524;8.536;2024-02-26T13:14:20;0.38;;;0.22;;
64052;SDS011;50299;49.524;8.536;2024-02-26T13:16:59;0.50;;;0.43;;
64052;SDS011;50299;49.524;8.536;2024-02-26T13:19:27;1.05;;;0.45;;
64052;SDS011;50299;49.524;8.536;2024-02-26T13:22:02;0.40;;;0.40;;
64052;SDS011;50299;49.524;8.536;2024-02-26T13:24:30;0.43;;;0.43;;
64052;SDS011;50299;49.524;8.536;2024-02-26T13:26:57;0.43;;;0.43;;
64052;SDS011;50299;49.524;8.536;2024-02-26T13:29:23;1.33;;;1.23;;
64052;SDS011;50299;49.524;8.536;2024-02-26T13:31:53;1.05;;;1.05;;
64052;SDS011;50299;49.524;8.536;2024-02-26T13:34:29;0.77;;;0.60;;
64052;SDS011;50299;49.524;8.536;2024-02-26T13:36:57;0.82;;;0.82;;
64052;SDS011;50299;49.524;8.536;2024-02-26T13:39:27;0.28;;;0.28;;
64052;SDS011;50299;49.524;8.536;2024-02-26T13:41:54;1.73;;;0.30;;
64052;SDS011;50299;49.524;8.536;2024-02-26T13:44:21;0.65;;;0.38;;
64052;SDS011;50299;49.524;8.536;2024-02-26T13:46:48;0.98;;;0.98;;
64052;SDS011;50299;49.524;8.536;2024-02-26T13:49:16;0.77;;;0.77;;
64052;SDS011;50299;49.524;8.536;2024-02-26T13:51:43;0.45;;;0.40;;
64052;SDS011;50299;49.524;8.536;2024-02-26T13:54:09;0.95;;;0.95;;
64052;SDS011;50299;49.524;8.536;2024-02-26T13:56:36;0.80;;;0.80;;
64052;SDS011;50299;49.524;8.536;2024-02-26T13:59:06;0.85;;;0.85;;
64052;SDS011;50299;49.524;8.536;2024-02-26T14:01:32;0.30;;;0.30;;
64052;SDS011;50299;49.524;8.536;2024-02-26T14:04:00;1.02;;;1.02;;
64052;SDS011;50299;49.524;8.536;2024-02-26T14:06:28;0.95;;;0.88;;
64052;SDS011;50299;49.524;8.536;2024-02-26T14:08:57;0.75;;;0.75;;
64052;SDS011;50299;49.524;8.536;2024-02-26T14:11:24;1.80;;;1.35;;
64052;SDS011;50299;49.524;8.536;2024-02-26T14:13:51;2.17;;;0.65;;
64052;SDS011;50299;49.524;8.536;2024-02-26T14:16:18;2.72;;;1.30;;
64052;SDS011;50299;49.524;8.536;2024-02-26T14:18:46;1.25;;;1.25;;
64052;SDS011;50299;49.524;8.536;2024-02-26T14:21:13;1.60;;;0.88;;
64052;SDS011;50299;49.524;8.536;2024-02-26T14:23:39;0.85;;;0.85;;
64052;SDS011;50299;49.524;8.536;2024-02-26T14:26:06;3.85;;;0.93;;
64052;SDS011;50299;49.524;8.536;2024-02-26T14:28:33;1.20;;;1.20;;
64052;SDS011;50299;49.524;8.536;2024-02-26T14:33:30;3.95;;;0.63;;
64052;SDS011;50299;49.524;8.536;2024-02-26T14:35:57;0.50;;;0.50;;
64052;SDS011;50299;49.524;8.536;2024-02-26T14:38:23;0.40;;;0.40;;
64052;SDS011;50299;49.524;8.536;2024-02-26T14:40:50;3.10;;;1.58;;
64052;SDS011;50299;49.524;8.536;2024-02-26T14:43:16;3.60;;;1.08;;
64052;SDS011;50299;49.524;8.536;2024-02-26T14:45:42;1.63;;;1.52;;
64052;SDS011;50299;49.524;8.536;2024-02-26T14:48:09;0.85;;;0.60;;
64052;SDS011;50299;49.524;8.536;2024-02-26T14:50:37;0.70;;;0.70;;
64052;SDS011;50299;49.524;8.536;2024-02-26T14:53:04;1.92;;;1.10;;
64052;SDS011;50299;49.524;8.536;2024-02-26T14:55:30;0.93;;;0.90;;
64052;SDS011;50299;49.524;8.536;2024-02-26T14:57:57;1.25;;;0.40;;
64052;SDS011;50299;49.524;8.536;2024-02-26T15:00:23;3.58;;;0.63;;
64052;SDS011;50299;49.524;8.536;2024-02-26T15:02:50;4.28;;;1.05;;
64052;SDS011;50299;49.524;8.536;2024-02-26T15:05:18;0.75;;;0.75;;
64052;SDS011;50299;49.524;8.536;2024-02-26T15:07:46;1.20;;;1.20;;
64052;SDS011;50299;49.524;8.536;2024-02-26T15:10:12;1.02;;;1.02;;